Date,TemperatureHighF,TemperatureAvgF,TemperatureLowF,DewpointHighF,DewpointAvgF,DewpointLowF,HumidityHigh,HumidityAvg,HumidityLow,PressureMaxIn,PressureMinIn,WindSpeedMaxMPH,WindSpeedAvgMPH,GustSpeedMaxMPH,PrecipitationSumIn
2012-12-1,82.0,77.8,74.0,-99.9,-99.9,-99.9,0,0,100,29.97,29.88,17,-1,21,0.00
2012-12-2,83.0,78.9,75.0,-99.9,-99.9,-99.9,0,0,100,29.93,29.83,9,-18,11,0.00
2012-12-3,83.0,76.8,73.0,-99.9,-99.9,-99.9,0,0,100,29.97,29.84,16,6,25,0.00
2012-12-4,83.0,81.2,77.0,-99.9,-99.9,-99.9,0,0,100,30.01,29.91,16,12,23,0.00
2012-12-5,84.0,80.7,77.0,-99.9,-99.9,-99.9,0,0,100,30.01,29.90,17,10,24,0.00
2012-12-6,83.0,77.3,73.0,-99.9,-99.9,-99.9,0,0,100,29.96,29.86,21,12,27,0.00
2012-12-7,83.0,79.7,75.0,-99.9,-99.9,-99.9,0,0,100,30.00,29.88,20,8,24,0.00
2012-12-8,85.0,80.8,77.0,-99.9,-99.9,-99.9,0,0,100,30.05,29.93,15,8,21,0.00
2012-12-9,83.0,80.5,78.0,-99.9,-99.9,-99.9,0,0,100,30.09,29.99,19,8,27,0.00
2012-12-10,83.0,80.7,78.0,-99.9,-99.9,-99.9,0,0,100,30.05,29.94,15,10,22,0.00
2012-12-11,82.0,80.1,76.0,-99.9,-99.9,-99.9,0,0,100,30.05,29.96,28,16,34,0.00
2012-12-12,83.0,81.3,80.0,-99.9,-99.9,-99.9,0,0,100,30.05,29.96,26,18,36,0.00
2012-12-13,81.0,78.3,75.0,-99.9,-99.9,-99.9,0,0,100,30.01,29.91,25,2,34,0.00
2012-12-14,82.0,78.8,75.0,-99.9,-99.9,-99.9,0,0,100,29.97,29.86,15,-6,18,0.00
2012-12-15,81.0,77.5,74.0,-99.9,-99.9,-99.9,0,0,100,29.99,29.88,11,4,16,0.00
2012-12-16,81.0,76.7,71.0,-99.9,-99.9,-99.9,0,0,100,30.00,29.92,15,6,17,0.00
2012-12-17,81.0,77.2,72.0,-99.9,-99.9,-99.9,0,0,100,30.02,29.92,19,8,21,0.00
2012-12-18,82.0,78.0,72.0,-99.9,-99.9,-99.9,0,0,100,30.01,29.93,17,8,20,0.00
2012-12-19,82.0,77.4,72.0,-99.9,-99.9,-99.9,0,0,100,30.02,29.93,17,-1,19,0.00
2012-12-20,82.0,79.9,78.0,-99.9,-99.9,-99.9,0,0,100,30.01,29.94,16,11,21,0.00
2012-12-21,80.0,77.3,75.0,-99.9,-99.9,-99.9,0,0,100,30.01,29.92,18,11,28,0.00
2012-12-22,81.0,77.6,73.0,-99.9,-99.9,-99.9,0,0,100,30.01,29.92,18,8,22,0.00
2012-12-23,80.0,77.8,74.0,-99.9,-99.9,-99.9,0,0,100,30.04,29.94,17,9,21,0.00
2012-12-24,80.0,77.7,73.0,-99.9,-99.9,-99.9,0,0,100,30.03,29.92,21,10,25,0.00
2012-12-25,81.0,78.0,74.0,-99.9,-99.9,-99.9,0,0,100,30.02,29.93,18,8,21,0.00
2012-12-26,81.0,79.1,76.0,-99.9,-99.9,-99.9,0,0,100,30.04,29.95,18,10,23,0.00
2012-12-27,82.0,79.3,76.0,-99.9,-99.9,-99.9,0,0,100,30.05,29.95,19,9,23,0.00
2012-12-28,81.0,79.5,77.0,-99.9,-99.9,-99.9,0,0,100,30.06,29.96,23,13,26,0.00
2012-12-29,81.0,79.1,77.0,-99.9,-99.9,-99.9,0,0,100,30.07,29.97,21,13,27,0.00
2012-12-30,83.0,78.7,74.0,-99.9,-99.9,-99.9,0,0,100,30.09,30.01,11,-29,14,0.00
2012-12-31,82.0,77.7,73.0,-99.9,-99.9,-99.9,0,0,100,30.11,30.03,13,-2,19,0.00